Terminal Aerodrome Forecast
Issued by NWS Cleveland, OH

Home | Current Version | Previous Version | Graphics & Text | Print | Product List | Glossary On
Versions: 1 2 3 4 5 6 7 8 9 10 11 12 13 14 15 16 17
000
FTUS41 KCLE 230500 RRA
TAFYNG
TAF
KYNG 230541Z 2306/2406 21006KT P6SM SCT250
     FM230800 24006KT P6SM BKN080 BKN250
      TEMPO 2310/2314 27010KT 5SM -SHRA OVC040
     FM231400 27006KT P6SM BKN040 OVC080
      TEMPO 2314/2318 5SM -TSRA BKN015CB
     FM231800 33010KT P6SM OVC015
     FM232000 33010KT P6SM BKN025
     FM232200 33008KT P6SM BKN035
     FM240000 33006KT P6SM BKN045=

USA.gov is the U.S. government's official web portal to all federal, state and local government web resources and services.